createdAt,value
2023-04-10T00:02:27.892Z,5.90
2023-04-10T00:04:56.120Z,5.70
2023-04-10T00:07:24.237Z,5.70
2023-04-10T00:09:53.703Z,5.80
2023-04-10T00:12:21.837Z,5.80
2023-04-10T00:14:50.138Z,5.70
2023-04-10T00:17:18.130Z,5.70
2023-04-10T00:19:46.166Z,5.70
2023-04-10T00:22:14.049Z,5.60
2023-04-10T00:24:42.292Z,5.60
2023-04-10T00:27:11.618Z,5.50
2023-04-10T00:29:39.456Z,5.50
2023-04-10T00:32:07.724Z,5.60
2023-04-10T00:34:35.950Z,5.60
2023-04-10T00:37:03.920Z,5.60
2023-04-10T00:39:32.100Z,5.50
2023-04-10T00:42:01.529Z,5.60
2023-04-10T00:44:30.857Z,5.50
2023-04-10T00:46:59.068Z,5.50
2023-04-10T00:49:26.989Z,5.60
2023-04-10T00:51:57.942Z,5.50
2023-04-10T00:54:27.492Z,5.50
2023-04-10T00:56:56.706Z,5.50
2023-04-10T00:59:24.807Z,5.50
2023-04-10T01:01:54.263Z,5.40
2023-04-10T01:04:23.065Z,5.30
2023-04-10T01:06:59.570Z,5.30
2023-04-10T01:09:39.612Z,5.30
2023-04-10T01:12:18.030Z,5.20
2023-04-10T01:14:54.654Z,5.20
2023-04-10T01:17:32.621Z,5.20
2023-04-10T01:20:06.247Z,5.20
2023-04-10T01:22:41.146Z,5.20
2023-04-10T01:25:25.702Z,5.20
2023-04-10T01:28:08.326Z,5.20
2023-04-10T01:30:38.921Z,5.30
2023-04-10T01:33:09.896Z,5.30
2023-04-10T01:35:39.404Z,5.40
2023-04-10T01:38:08.628Z,5.40
2023-04-10T01:40:39.480Z,5.20
2023-04-10T01:43:11.281Z,5.10
2023-04-10T01:45:43.576Z,5.20
2023-04-10T01:48:11.765Z,5.20
2023-04-10T01:50:40.868Z,5.10
2023-04-10T01:53:09.110Z,5.20
2023-04-10T01:55:39.394Z,5.10
2023-04-10T01:58:07.638Z,5.00
2023-04-10T02:00:41.834Z,5.10
2023-04-10T02:03:10.751Z,5.30
2023-04-10T02:05:47.327Z,5.30
2023-04-10T02:08:21.681Z,5.30
2023-04-10T02:10:55.380Z,5.10
2023-04-10T02:13:26.768Z,5.10
2023-04-10T02:15:58.932Z,5.10
2023-04-10T02:18:28.027Z,5.10
2023-04-10T02:20:56.597Z,5.20
2023-04-10T02:23:25.093Z,5.20
2023-04-10T02:25:53.447Z,5.20
2023-04-10T02:28:21.585Z,5.30
2023-04-10T02:30:50.447Z,5.30
2023-04-10T02:33:19.870Z,5.20
2023-04-10T02:35:47.783Z,5.20
2023-04-10T02:38:17.367Z,5.10
2023-04-10T02:40:46.110Z,5.10
2023-04-10T02:43:14.212Z,5.10
2023-04-10T02:45:42.692Z,5.10
2023-04-10T02:48:10.992Z,4.90
2023-04-10T02:50:41.197Z,4.90
2023-04-10T02:53:09.126Z,4.90
2023-04-10T02:55:37.188Z,4.90
2023-04-10T02:58:05.056Z,4.80
2023-04-10T03:00:33.450Z,4.80
2023-04-10T03:03:01.741Z,4.80
2023-04-10T03:05:30.084Z,4.80
2023-04-10T03:07:59.439Z,4.80
2023-04-10T03:10:27.365Z,4.80
2023-04-10T03:12:55.399Z,4.70
2023-04-10T03:15:23.324Z,4.80
2023-04-10T03:17:52.008Z,4.70
2023-04-10T03:20:19.988Z,4.70
2023-04-10T03:22:48.229Z,4.60
2023-04-10T03:25:17.720Z,4.60
2023-04-10T03:27:45.813Z,4.60
2023-04-10T03:30:14.314Z,4.70
2023-04-10T03:32:43.194Z,4.70
2023-04-10T03:35:11.923Z,4.60
2023-04-10T03:37:39.842Z,4.60
2023-04-10T03:40:09.902Z,4.70
2023-04-10T03:42:39.408Z,4.60
2023-04-10T03:45:08.388Z,4.70
2023-04-10T03:47:36.512Z,4.60
2023-04-10T03:50:04.741Z,4.50
2023-04-10T03:52:32.796Z,4.50
2023-04-10T03:55:00.731Z,4.50
2023-04-10T03:57:28.792Z,4.60
2023-04-10T03:59:58.276Z,4.60
2023-04-10T04:02:26.403Z,4.50
2023-04-10T04:04:54.676Z,4.60
2023-04-10T04:07:22.619Z,4.50
2023-04-10T04:09:51.254Z,4.40
2023-04-10T04:12:19.354Z,4.50
2023-04-10T04:14:47.339Z,4.50
2023-04-10T04:17:16.758Z,4.50
2023-04-10T04:19:45.033Z,4.50
2023-04-10T04:22:13.453Z,4.50
2023-04-10T04:24:41.487Z,4.40
2023-04-10T04:27:09.500Z,4.40
2023-04-10T04:29:37.504Z,4.30
2023-04-10T04:32:05.869Z,4.30
2023-04-10T04:34:35.254Z,4.20
2023-04-10T04:37:03.340Z,4.10
2023-04-10T04:39:31.259Z,4.20
2023-04-10T04:41:59.478Z,4.10
2023-04-10T04:44:27.462Z,4.00
2023-04-10T04:46:55.454Z,4.00
2023-04-10T04:49:23.496Z,4.00
2023-04-10T04:51:52.791Z,4.10
2023-04-10T04:54:20.838Z,4.10
2023-04-10T04:56:48.880Z,4.10
2023-04-10T04:59:16.936Z,4.10
2023-04-10T05:01:45.050Z,4.20
2023-04-10T05:04:13.291Z,4.20
2023-04-10T05:06:41.472Z,4.20
2023-04-10T05:09:11.105Z,4.20
2023-04-10T05:11:38.983Z,4.20
2023-04-10T05:14:07.493Z,4.20
2023-04-10T05:16:35.359Z,4.30
2023-04-10T05:19:03.284Z,4.40
2023-04-10T05:21:31.396Z,4.50
2023-04-10T05:23:59.353Z,4.60
2023-04-10T05:26:28.820Z,4.70
2023-04-10T05:28:56.846Z,4.80
2023-04-10T05:31:25.751Z,5.00
2023-04-10T05:33:53.660Z,5.20
2023-04-10T05:36:21.841Z,5.40
2023-04-10T05:38:49.900Z,5.70
2023-04-10T05:41:17.861Z,5.80
2023-04-10T05:43:47.499Z,6.00
2023-04-10T05:46:15.661Z,6.40
2023-04-10T05:48:43.653Z,6.60
2023-04-10T05:51:11.634Z,7.00
2023-04-10T05:53:39.814Z,7.10
2023-04-10T05:56:08.687Z,7.40
2023-04-10T05:58:36.613Z,7.50
2023-04-10T06:01:06.844Z,7.70
2023-04-10T06:03:35.059Z,7.90
2023-04-10T06:06:03.435Z,8.10
2023-04-10T06:08:31.480Z,8.00
2023-04-10T06:10:59.499Z,8.10
2023-04-10T06:13:28.050Z,8.30
2023-04-10T06:15:56.253Z,8.80
2023-04-10T06:18:25.527Z,9.40
2023-04-10T06:20:53.576Z,9.70
2023-04-10T06:23:21.633Z,10.30
2023-04-10T06:25:49.585Z,11.00
2023-04-10T06:28:17.677Z,11.30
2023-04-10T06:30:45.839Z,11.70
2023-04-10T06:33:13.979Z,12.20
2023-04-10T06:35:43.271Z,12.60
2023-04-10T06:38:11.178Z,12.70
2023-04-10T06:40:39.640Z,13.20
2023-04-10T06:43:07.573Z,13.30
2023-04-10T06:45:35.449Z,13.30
2023-04-10T06:48:03.719Z,13.50
2023-04-10T06:50:33.456Z,14.00
2023-04-10T06:53:02.873Z,14.30
2023-04-10T06:55:31.394Z,14.30
2023-04-10T06:57:59.303Z,14.30
2023-04-10T07:00:28.165Z,13.60
2023-04-10T07:02:56.364Z,14.00
2023-04-10T07:05:24.663Z,14.50
2023-04-10T07:07:53.399Z,14.90
2023-04-10T07:10:22.715Z,15.00
2023-04-10T07:12:50.715Z,14.40
2023-04-10T07:15:19.023Z,14.40
2023-04-10T07:17:48.763Z,14.10
2023-04-10T07:20:16.894Z,14.10
2023-04-10T07:22:44.810Z,14.10
2023-04-10T07:25:14.333Z,13.60
2023-04-10T07:27:43.644Z,14.10
2023-04-10T07:30:13.672Z,14.00
2023-04-10T07:32:42.535Z,13.70
2023-04-10T07:35:11.095Z,13.90
2023-04-10T07:37:39.882Z,13.90
2023-04-10T07:40:09.267Z,13.60
2023-04-10T07:42:37.385Z,13.80
2023-04-10T07:45:08.233Z,14.40
2023-04-10T07:47:36.175Z,14.70
2023-04-10T07:50:04.388Z,14.50
2023-04-10T07:52:32.719Z,14.80
2023-04-10T07:55:03.093Z,14.60
2023-04-10T07:57:32.325Z,15.20
2023-04-10T08:00:00.738Z,15.40
2023-04-10T08:02:32.211Z,16.30
2023-04-10T08:05:00.529Z,17.10
2023-04-10T08:07:28.534Z,17.40
2023-04-10T08:09:56.582Z,16.50
2023-04-10T08:12:24.617Z,17.00
2023-04-10T08:14:52.584Z,17.00
2023-04-10T08:17:20.618Z,17.10
2023-04-10T08:19:49.995Z,16.30
2023-04-10T08:22:18.063Z,15.70
2023-04-10T08:24:46.148Z,16.30
2023-04-10T08:27:16.042Z,16.40
2023-04-10T08:29:44.474Z,16.60
2023-04-10T08:32:12.362Z,16.80
2023-04-10T08:34:40.680Z,17.10
2023-04-10T08:37:12.200Z,17.60
2023-04-10T08:39:40.364Z,17.50
2023-04-10T08:42:08.590Z,17.50
2023-04-10T08:44:37.484Z,16.80
2023-04-10T08:47:06.413Z,17.50
2023-04-10T08:49:42.547Z,17.10
2023-04-10T08:52:16.022Z,16.30
2023-04-10T08:54:48.827Z,16.80
2023-04-10T08:57:20.869Z,17.00
2023-04-10T08:59:49.418Z,16.70
2023-04-10T09:02:17.624Z,16.50
2023-04-10T09:04:50.276Z,16.00
2023-04-10T09:07:19.807Z,16.10
2023-04-10T09:09:47.867Z,16.40
2023-04-10T09:12:16.433Z,17.20
2023-04-10T09:14:44.648Z,17.50
2023-04-10T09:17:20.076Z,17.60
2023-04-10T09:19:49.658Z,17.50
2023-04-10T09:22:19.647Z,17.50
2023-04-10T09:24:48.739Z,18.10
2023-04-10T09:27:31.502Z,18.50
2023-04-10T09:30:00.204Z,19.30
2023-04-10T09:32:46.534Z,19.60
2023-04-10T09:35:19.852Z,19.80
2023-04-10T09:37:51.514Z,20.20
2023-04-10T09:40:24.796Z,19.70
2023-04-10T09:42:53.390Z,19.30
2023-04-10T09:45:22.847Z,19.80
2023-04-10T09:48:05.185Z,20.10
2023-04-10T09:50:40.243Z,20.70
2023-04-10T09:53:10.321Z,20.60
2023-04-10T09:55:38.678Z,20.50
2023-04-10T09:58:07.713Z,20.90
2023-04-10T10:00:43.248Z,21.10
2023-04-10T10:03:13.243Z,21.30
2023-04-10T10:05:43.623Z,20.90
2023-04-10T10:08:14.640Z,21.30
2023-04-10T10:10:48.091Z,20.70
2023-04-10T10:13:21.502Z,20.60
2023-04-10T10:16:02.256Z,20.60
2023-04-10T10:18:40.182Z,20.80
2023-04-10T10:21:10.153Z,20.80
2023-04-10T10:23:39.902Z,21.30
2023-04-10T10:26:08.882Z,21.20
2023-04-10T10:28:37.753Z,22.10
2023-04-10T10:31:06.662Z,21.90
2023-04-10T10:33:37.207Z,21.50
2023-04-10T10:36:06.768Z,22.20
2023-04-10T10:38:36.035Z,20.90
2023-04-10T10:41:14.124Z,21.10
2023-04-10T10:43:53.434Z,22.00
2023-04-10T10:46:33.850Z,22.30
2023-04-10T10:49:02.252Z,23.20
2023-04-10T10:51:48.154Z,23.60
2023-04-10T10:54:35.470Z,24.70
2023-04-10T10:57:09.334Z,24.60
2023-04-10T10:59:57.265Z,23.40
2023-04-10T11:02:25.689Z,24.40
2023-04-10T11:04:53.831Z,24.70
2023-04-10T11:07:21.817Z,24.50
2023-04-10T11:09:52.181Z,23.60
2023-04-10T11:12:23.645Z,23.40
2023-04-10T11:15:00.335Z,22.70
2023-04-10T11:17:51.518Z,23.30
2023-04-10T11:20:22.307Z,22.10
2023-04-10T11:23:10.557Z,21.00
2023-04-10T11:25:49.297Z,19.80
2023-04-10T11:28:38.445Z,18.60
2023-04-10T11:31:22.117Z,17.80
2023-04-10T11:33:51.979Z,17.30
2023-04-10T11:36:21.465Z,16.90
2023-04-10T11:39:00.143Z,16.70
2023-04-10T11:41:30.502Z,16.20
2023-04-10T11:44:00.701Z,15.90
2023-04-10T11:46:29.154Z,15.70
2023-04-10T11:48:59.412Z,15.60
2023-04-10T11:51:28.658Z,15.40
2023-04-10T11:54:07.280Z,15.30
2023-04-10T11:56:35.620Z,15.20
2023-04-10T11:59:07.976Z,14.90
2023-04-10T12:01:36.516Z,14.70
2023-04-10T12:04:05.203Z,14.50
2023-04-10T12:06:33.363Z,14.60
2023-04-10T12:09:01.514Z,14.60
2023-04-10T12:11:29.697Z,14.60
2023-04-10T12:13:58.905Z,14.50
2023-04-10T12:16:29.241Z,14.30
2023-04-10T12:18:57.632Z,14.10
2023-04-10T12:21:26.247Z,14.30
2023-04-10T12:23:54.187Z,14.40
2023-04-10T12:26:22.547Z,14.40
2023-04-10T12:28:55.111Z,14.50
2023-04-10T12:31:32.083Z,14.60
2023-04-10T12:34:01.337Z,14.50
2023-04-10T12:36:30.537Z,14.30
2023-04-10T12:38:58.905Z,14.30
2023-04-10T12:41:29.896Z,14.40
2023-04-10T12:44:09.401Z,14.50
2023-04-10T12:46:39.030Z,14.40
2023-04-10T12:49:11.471Z,14.40
2023-04-10T12:51:47.085Z,14.30
2023-04-10T12:54:29.066Z,14.10
2023-04-10T12:56:57.647Z,14.00
2023-04-10T12:59:26.430Z,14.00
2023-04-10T13:01:56.310Z,14.10
2023-04-10T13:04:24.842Z,14.10
2023-04-10T13:06:53.586Z,14.10
2023-04-10T13:09:21.897Z,14.10
2023-04-10T13:11:51.685Z,14.20
2023-04-10T13:14:20.128Z,14.30
2023-04-10T13:16:48.257Z,14.40
2023-04-10T13:19:18.115Z,14.30
2023-04-10T13:21:46.092Z,14.30
2023-04-10T13:24:16.497Z,14.40
2023-04-10T13:26:44.898Z,14.50
2023-04-10T13:29:12.881Z,14.70
2023-04-10T13:31:41.225Z,14.70
2023-04-10T13:34:09.155Z,14.70
2023-04-10T13:36:38.730Z,14.60
2023-04-10T13:39:06.822Z,14.50
2023-04-10T13:41:35.121Z,14.50
2023-04-10T13:44:03.014Z,14.60
2023-04-10T13:46:31.059Z,14.50
2023-04-10T13:48:59.532Z,14.60
2023-04-10T13:51:27.862Z,14.70
2023-04-10T13:53:57.325Z,14.60
2023-04-10T13:56:25.401Z,14.70
2023-04-10T13:58:53.466Z,14.80
2023-04-10T14:01:21.852Z,14.70
2023-04-10T14:03:50.368Z,14.60
2023-04-10T14:06:18.528Z,14.60
2023-04-10T14:08:46.749Z,14.70
2023-04-10T14:11:17.065Z,14.80
2023-04-10T14:13:44.949Z,14.80
2023-04-10T14:16:13.135Z,14.70
2023-04-10T14:18:41.131Z,14.60
2023-04-10T14:21:09.404Z,14.50
2023-04-10T14:23:37.605Z,14.60
2023-04-10T14:26:06.736Z,14.70
2023-04-10T14:28:36.319Z,14.80
2023-04-10T14:31:06.226Z,14.80
2023-04-10T14:33:34.999Z,14.90
2023-04-10T14:36:03.349Z,14.90
2023-04-10T14:38:31.443Z,14.80
2023-04-10T14:40:59.346Z,14.90
2023-04-10T14:43:27.408Z,15.00
2023-04-10T14:45:56.790Z,15.00
2023-04-10T14:48:24.792Z,15.00
2023-04-10T14:50:52.952Z,14.90
2023-04-10T14:53:21.613Z,14.90
2023-04-10T14:55:49.833Z,14.90
2023-04-10T14:58:17.690Z,14.90
2023-04-10T15:00:45.789Z,14.80
2023-04-10T15:03:15.219Z,14.80
2023-04-10T15:05:43.209Z,14.80
2023-04-10T15:08:11.533Z,14.80
2023-04-10T15:10:42.453Z,14.80
2023-04-10T15:13:10.520Z,14.80
2023-04-10T15:15:38.612Z,14.70
2023-04-10T15:18:06.732Z,14.70
2023-04-10T15:20:36.176Z,14.70
2023-04-10T15:23:04.089Z,14.70
2023-04-10T15:25:34.165Z,14.70
2023-04-10T15:28:02.537Z,14.70
2023-04-10T15:30:31.237Z,14.60
2023-04-10T15:32:59.203Z,14.70
2023-04-10T15:35:28.777Z,14.90
2023-04-10T15:37:58.434Z,14.80
2023-04-10T15:40:26.359Z,14.80
2023-04-10T15:42:54.776Z,14.70
2023-04-10T15:45:22.919Z,14.80
2023-04-10T15:47:50.884Z,14.70
2023-04-10T15:50:18.972Z,14.70
2023-04-10T15:52:47.038Z,14.70
2023-04-10T15:55:17.145Z,14.70
2023-04-10T15:57:45.206Z,14.80
2023-04-10T16:00:14.558Z,14.80
2023-04-10T16:02:42.645Z,14.90
2023-04-10T16:05:11.101Z,15.00
2023-04-10T16:07:40.649Z,15.00
2023-04-10T16:10:10.476Z,14.90
2023-04-10T16:12:39.796Z,15.00
2023-04-10T16:15:09.197Z,15.00
2023-04-10T16:17:37.229Z,14.90
2023-04-10T16:20:07.488Z,14.90
2023-04-10T16:22:36.393Z,14.80
2023-04-10T16:27:39.198Z,14.70
2023-04-10T16:30:08.553Z,14.60
2023-04-10T16:32:36.645Z,14.40
2023-04-10T16:35:05.203Z,14.40
2023-04-10T16:37:33.249Z,14.40
2023-04-10T16:40:02.066Z,14.40
2023-04-10T16:42:30.157Z,14.50
2023-04-10T16:45:02.016Z,14.50
2023-04-10T16:47:30.134Z,14.40
2023-04-10T16:49:58.361Z,14.40
2023-04-10T16:52:26.391Z,14.30
2023-04-10T16:54:54.462Z,14.20
2023-04-10T16:57:22.608Z,14.20
2023-04-10T16:59:50.674Z,14.30
2023-04-10T17:02:20.072Z,14.20
2023-04-10T17:04:48.031Z,14.10
2023-04-10T17:07:16.086Z,14.20
2023-04-10T17:09:44.003Z,14.10
2023-04-10T17:12:12.294Z,14.00
2023-04-10T17:14:40.239Z,14.10
2023-04-10T17:17:08.487Z,14.00
2023-04-10T17:19:38.483Z,14.20
2023-04-10T17:22:15.439Z,14.20
2023-04-10T17:24:44.633Z,14.10
2023-04-10T17:27:13.021Z,14.00
2023-04-10T17:29:41.225Z,13.90
2023-04-10T17:32:10.154Z,13.90
2023-04-10T17:34:39.778Z,13.90
2023-04-10T17:37:07.816Z,13.90
2023-04-10T17:39:36.069Z,13.90
2023-04-10T17:42:04.065Z,13.90
2023-04-10T17:44:32.186Z,13.70
2023-04-10T17:47:01.500Z,13.70
2023-04-10T17:49:29.364Z,13.60
2023-04-10T17:51:58.784Z,13.50
2023-04-10T17:54:26.866Z,13.70
2023-04-10T17:56:54.811Z,13.60
2023-04-10T17:59:22.722Z,13.60
2023-04-10T18:01:50.868Z,13.60
2023-04-10T18:04:18.874Z,13.50
2023-04-10T18:06:47.212Z,13.50
2023-04-10T18:09:16.946Z,13.60
2023-04-10T18:11:44.887Z,13.50
2023-04-10T18:14:12.970Z,13.40
2023-04-10T18:16:40.877Z,13.40
2023-04-10T18:19:10.112Z,13.40
2023-04-10T18:21:38.265Z,13.30
2023-04-10T18:24:06.773Z,13.30
2023-04-10T18:26:36.251Z,13.20
2023-04-10T18:29:04.387Z,13.10
2023-04-10T18:31:32.300Z,13.10
2023-04-10T18:34:07.901Z,13.10
2023-04-10T18:36:36.888Z,13.00
2023-04-10T18:39:06.666Z,13.10
2023-04-10T18:41:35.948Z,13.10
2023-04-10T18:44:05.532Z,13.00
2023-04-10T18:46:34.053Z,13.00
2023-04-10T18:49:03.481Z,13.20
2023-04-10T18:51:34.930Z,13.10
2023-04-10T18:54:03.368Z,13.10
2023-04-10T18:56:31.447Z,13.10
2023-04-10T18:59:00.778Z,13.00
2023-04-10T19:01:29.075Z,12.90
2023-04-10T19:03:57.689Z,12.90
2023-04-10T19:06:26.988Z,12.90
2023-04-10T19:08:55.886Z,12.70
2023-04-10T19:11:24.100Z,12.90
2023-04-10T19:13:52.012Z,12.80
2023-04-10T19:16:21.493Z,12.70
2023-04-10T19:18:49.959Z,12.70
2023-04-10T19:21:18.180Z,12.60
2023-04-10T19:23:46.386Z,12.40
2023-04-10T19:26:14.295Z,12.30
2023-04-10T19:28:42.366Z,12.30
2023-04-10T19:31:10.381Z,12.30
2023-04-10T19:33:39.756Z,12.30
2023-04-10T19:36:08.846Z,12.20
2023-04-10T19:38:36.812Z,12.20
2023-04-10T19:41:13.684Z,12.10
2023-04-10T19:43:41.708Z,12.00
2023-04-10T19:46:18.063Z,11.90
2023-04-10T19:48:47.583Z,11.90
2023-04-10T19:51:15.916Z,11.90
2023-04-10T19:53:43.819Z,11.80
2023-04-10T19:56:12.310Z,11.90
2023-04-10T19:58:41.640Z,11.80
2023-04-10T20:01:11.810Z,11.90
2023-04-10T20:03:40.504Z,12.00
2023-04-10T20:06:10.314Z,11.90
2023-04-10T20:08:38.499Z,11.80
2023-04-10T20:11:07.138Z,11.80
2023-04-10T20:13:35.691Z,11.80
2023-04-10T20:16:04.056Z,11.70
2023-04-10T20:18:32.830Z,11.80
2023-04-10T20:21:00.763Z,11.90
2023-04-10T20:23:30.288Z,11.80
2023-04-10T20:25:58.332Z,11.90
2023-04-10T20:28:26.387Z,12.00
2023-04-10T20:30:54.265Z,11.90
2023-04-10T20:33:22.311Z,11.90
2023-04-10T20:35:50.411Z,11.90
2023-04-10T20:38:19.757Z,11.70
2023-04-10T20:40:49.120Z,11.60
2023-04-10T20:43:18.807Z,11.60
2023-04-10T20:45:46.744Z,11.60
2023-04-10T20:48:14.707Z,11.70
2023-04-10T20:50:44.628Z,11.60
2023-04-10T20:53:12.952Z,11.60
2023-04-10T20:55:41.180Z,11.60
2023-04-10T20:58:10.899Z,11.50
2023-04-10T21:00:39.726Z,11.30
2023-04-10T21:03:08.299Z,11.30
2023-04-10T21:05:40.843Z,11.40
2023-04-10T21:08:09.039Z,11.40
2023-04-10T21:10:43.716Z,11.40
2023-04-10T21:13:13.534Z,11.50
2023-04-10T21:15:41.646Z,11.50
2023-04-10T21:18:10.477Z,11.30
2023-04-10T21:20:38.391Z,11.40
2023-04-10T21:23:06.526Z,11.50
2023-04-10T21:25:36.101Z,11.50
2023-04-10T21:28:04.179Z,11.50
2023-04-10T21:30:33.445Z,11.50
2023-04-10T21:33:01.575Z,11.40
2023-04-10T21:35:29.575Z,11.40
2023-04-10T21:38:01.851Z,11.20
2023-04-10T21:40:34.169Z,11.20
2023-04-10T21:43:02.516Z,11.10
2023-04-10T21:45:30.478Z,11.10
2023-04-10T21:48:00.815Z,11.10
2023-04-10T21:50:28.757Z,11.00
2023-04-10T21:52:56.784Z,11.10
2023-04-10T21:55:24.978Z,11.30
2023-04-10T21:57:52.876Z,11.30
2023-04-10T22:00:22.873Z,11.40
2023-04-10T22:02:52.036Z,11.40
2023-04-10T22:05:22.522Z,11.30
2023-04-10T22:07:50.649Z,11.30
2023-04-10T22:10:19.004Z,11.20
2023-04-10T22:12:48.447Z,11.20
2023-04-10T22:15:16.973Z,11.40
2023-04-10T22:17:45.179Z,11.30
2023-04-10T22:20:13.815Z,11.30
2023-04-10T22:22:43.207Z,11.40
2023-04-10T22:25:11.287Z,11.40
2023-04-10T22:27:39.191Z,11.30
2023-04-10T22:30:09.898Z,11.30
2023-04-10T22:32:38.350Z,11.20
2023-04-10T22:35:07.757Z,11.30
2023-04-10T22:37:35.939Z,11.40
2023-04-10T22:40:06.775Z,11.40
2023-04-10T22:42:34.877Z,11.30
2023-04-10T22:45:03.031Z,11.30
2023-04-10T22:47:31.028Z,11.20
2023-04-10T22:49:58.928Z,11.20
2023-04-10T22:52:26.988Z,11.30
2023-04-10T22:54:54.906Z,11.40
2023-04-10T22:57:31.244Z,11.50
2023-04-10T23:00:00.574Z,11.40
2023-04-10T23:02:29.060Z,11.40
2023-04-10T23:04:57.813Z,11.40
2023-04-10T23:07:27.918Z,11.40
2023-04-10T23:09:55.904Z,11.40
2023-04-10T23:12:26.284Z,11.40
2023-04-10T23:14:54.336Z,11.50
2023-04-10T23:17:22.214Z,11.50
2023-04-10T23:19:50.335Z,11.60
2023-04-10T23:22:18.632Z,11.70
2023-04-10T23:24:46.702Z,11.70
2023-04-10T23:27:14.619Z,11.70
2023-04-10T23:29:44.020Z,11.60
2023-04-10T23:32:11.997Z,11.60
2023-04-10T23:34:40.224Z,11.50
2023-04-10T23:37:08.256Z,11.60
2023-04-10T23:39:36.150Z,11.60
2023-04-10T23:42:04.263Z,11.60
2023-04-10T23:44:32.195Z,11.60
2023-04-10T23:47:01.551Z,11.60
2023-04-10T23:49:30.112Z,11.60
2023-04-10T23:51:58.027Z,11.70
2023-04-10T23:54:26.107Z,11.70
2023-04-10T23:56:53.961Z,11.70
2023-04-10T23:59:22.367Z,11.80
